Time;durP1;ratioP1;P1;durP2;ratioP2;P2;SDS_P1;SDS_P2;PMS_P1;PMS_P2;Temp;Humidity;BMP_temperature;BMP_pressure;BME280_temperature;BME280_humidity;BME280_pressure;Samples;Min_cycle;Max_cycle;Signal;HPM_P1;HPM_P2
2021/12/11 00:00:16;;;;;;;1.63;1.50;;;5.70;57.50;;;;;;20539;6832;282165;-86
2021/12/11 00:02:41;;;;;;;1.47;1.37;;;5.80;57.90;;;;;;20765;6832;121834;-88
2021/12/11 00:05:07;;;;;;;1.55;1.45;;;5.70;57.80;;;;;;20790;6832;122285;-85
2021/12/11 00:07:34;;;;;;;1.90;1.17;;;5.50;58.40;;;;;;20800;6831;122033;-87
2021/12/11 00:09:58;;;;;;;1.30;1.20;;;5.40;58.70;;;;;;20831;6832;116991;-89
2021/12/11 00:12:27;;;;;;;1.50;1.40;;;5.20;59.10;;;;;;20794;6832;116937;-91
2021/12/11 00:14:53;;;;;;;1.30;1.30;;;5.00;59.70;;;;;;20792;6832;117677;-85
2021/12/11 00:17:22;;;;;;;2.00;1.53;;;5.00;59.70;;;;;;20574;6832;306669;-85
2021/12/11 00:19:47;;;;;;;1.37;1.37;;;5.20;59.70;;;;;;20778;6832;117000;-89
2021/12/11 00:22:13;;;;;;;1.37;1.23;;;5.30;59.30;;;;;;20806;6832;116725;-88
2021/12/11 00:24:39;;;;;;;1.67;1.47;;;5.30;59.40;;;;;;20539;6832;281294;-88
2021/12/11 00:28:04;;;;;;;1.67;1.43;;;5.50;59.00;;;;;;21141;6521;67044;-86
2021/12/11 00:30:35;;;;;;;1.20;1.20;;;5.50;58.70;;;;;;20612;6816;276249;-88
2021/12/11 00:32:59;;;;;;;1.43;1.33;;;5.70;58.40;;;;;;20560;6824;307110;-86
2021/12/11 00:35:24;;;;;;;1.83;1.30;;;5.90;57.40;;;;;;20408;6883;311663;-90
2021/12/11 00:37:50;;;;;;;1.40;1.30;;;6.20;56.70;;;;;;20634;6893;116442;-91
2021/12/11 00:40:22;;;;;;;1.35;1.25;;;6.10;56.60;;;;;;20397;6893;337992;-85
2021/12/11 00:42:51;;;;;;;1.20;1.20;;;6.10;56.80;;;;;;20590;6883;119347;-88
2021/12/11 00:45:17;;;;;;;1.30;1.20;;;6.00;56.90;;;;;;20422;6883;308891;-84
2021/12/11 00:47:42;;;;;;;1.20;1.20;;;6.00;56.80;;;;;;20432;6878;337894;-86
2021/12/11 00:50:08;;;;;;;1.30;1.20;;;6.30;56.30;;;;;;20622;6878;116427;-84
2021/12/11 00:52:37;;;;;;;1.63;1.30;;;6.20;56.30;;;;;;20417;6878;285189;-86
2021/12/11 00:55:06;;;;;;;1.60;1.50;;;6.10;56.10;;;;;;20401;6878;278422;-86
2021/12/11 00:57:32;;;;;;;1.33;1.23;;;6.50;55.10;;;;;;20407;6878;315462;-86
2021/12/11 01:00:08;;;;;;;1.23;1.20;;;6.50;55.00;;;;;;20617;6878;116978;-85
2021/12/11 01:02:34;;;;;;;1.00;1.00;;;6.40;55.20;;;;;;20620;6878;118805;-84
2021/12/11 01:05:00;;;;;;;1.40;1.30;;;6.00;55.90;;;;;;20454;6878;283585;-85
2021/12/11 01:07:31;;;;;;;1.20;1.00;;;6.30;55.60;;;;;;20443;6878;279028;-86
2021/12/11 01:09:51;;;;;;;1.37;1.27;;;6.30;55.60;;;;;;20430;6878;279659;-85
2021/12/11 01:12:24;;;;;;;1.30;1.20;;;6.50;55.00;;;;;;20432;6878;285366;-84
2021/12/11 01:14:56;;;;;;;1.50;1.17;;;6.60;54.30;;;;;;20690;6878;116591;-84
2021/12/11 01:17:31;;;;;;;1.10;1.10;;;6.40;54.50;;;;;;20650;6878;117113;-85
2021/12/11 01:19:54;;;;;;;1.40;1.30;;;6.10;55.30;;;;;;20417;6878;313947;-84
2021/12/11 01:22:24;;;;;;;1.58;1.20;;;6.10;55.70;;;;;;20435;6878;307991;-86
2021/12/11 01:24:46;;;;;;;2.03;1.10;;;6.30;55.10;;;;;;20617;6878;122565;-84
2021/12/11 01:27:10;;;;;;;1.23;1.10;;;6.20;55.10;;;;;;20443;6878;313509;-85
2021/12/11 01:29:36;;;;;;;1.60;1.40;;;6.30;55.20;;;;;;20652;6878;116374;-84
2021/12/11 01:32:01;;;;;;;0.97;0.90;;;6.10;55.30;;;;;;20642;6878;117146;-86
2021/12/11 01:34:27;;;;;;;2.77;1.30;;;5.90;55.90;;;;;;20631;6878;123099;-84
2021/12/11 01:36:53;;;;;;;1.30;1.20;;;5.70;56.40;;;;;;20635;6893;116426;-89
2021/12/11 01:39:18;;;;;;;1.00;0.98;;;5.50;56.90;;;;;;20667;6877;116479;-86
2021/12/11 01:41:44;;;;;;;1.35;0.95;;;5.30;58.00;;;;;;20609;6891;116130;-86
2021/12/11 01:44:10;;;;;;;1.30;1.10;;;5.30;57.70;;;;;;20435;6878;298884;-84
2021/12/11 01:46:36;;;;;;;0.80;0.80;;;5.50;57.70;;;;;;20588;6893;117253;-87
2021/12/11 01:49:01;;;;;;;2.37;1.52;;;5.60;57.40;;;;;;20657;6878;116394;-85
2021/12/11 01:51:30;;;;;;;1.50;1.00;;;5.40;57.50;;;;;;20613;6891;119738;-85
2021/12/11 01:54:03;;;;;;;1.13;1.13;;;5.30;57.90;;;;;;20441;6878;311415;-86
2021/12/11 01:56:28;;;;;;;1.27;1.10;;;5.50;57.60;;;;;;20368;6893;279770;-86
2021/12/11 01:58:58;;;;;;;1.50;1.10;;;5.90;56.70;;;;;;20434;6878;279202;-84
2021/12/11 02:01:28;;;;;;;1.60;1.25;;;6.20;55.80;;;;;;20367;6893;310218;-85
2021/12/11 02:03:54;;;;;;;3.13;1.20;;;6.40;55.10;;;;;;20641;6878;116282;-85
2021/12/11 02:06:20;;;;;;;1.00;1.00;;;6.30;55.10;;;;;;20395;6891;284263;-86
2021/12/11 02:08:45;;;;;;;1.05;1.02;;;6.30;55.20;;;;;;20627;6878;117225;-86
2021/12/11 02:11:14;;;;;;;1.48;1.12;;;6.20;55.40;;;;;;20598;6893;117279;-86
2021/12/11 02:13:46;;;;;;;1.17;1.17;;;5.90;55.90;;;;;;20423;6878;280352;-87
2021/12/11 02:16:18;;;;;;;1.37;1.30;;;6.00;56.10;;;;;;20388;6893;308199;-87
2021/12/11 02:18:46;;;;;;;1.23;1.15;;;6.30;55.50;;;;;;20449;6878;295168;-88
2021/12/11 02:21:16;;;;;;;1.33;1.10;;;6.50;54.80;;;;;;20390;6891;306823;-85
2021/12/11 02:23:42;;;;;;;1.20;1.10;;;6.80;53.90;;;;;;20390;6893;313090;-86
2021/12/11 02:26:08;;;;;;;2.03;1.20;;;6.80;53.90;;;;;;20432;6878;313183;-86
2021/12/11 02:28:37;;;;;;;1.15;1.10;;;6.90;53.30;;;;;;20390;6878;341705;-86
2021/12/11 02:31:06;;;;;;;1.20;1.10;;;6.90;53.30;;;;;;20438;6878;309755;-86
2021/12/11 02:33:31;;;;;;;1.43;1.37;;;7.00;53.10;;;;;;20483;6893;117562;-86
2021/12/11 02:35:57;;;;;;;1.70;1.10;;;6.70;53.40;;;;;;20433;6878;304020;-86
2021/12/11 02:38:29;;;;;;;1.40;1.27;;;6.60;53.90;;;;;;20364;6878;311100;-86
2021/12/11 02:40:55;;;;;;;1.27;1.17;;;6.70;53.80;;;;;;20640;6878;122068;-87
2021/12/11 02:43:26;;;;;;;1.00;1.00;;;6.50;53.90;;;;;;20585;6891;117258;-85
2021/12/11 02:45:55;;;;;;;1.07;1.07;;;6.20;54.60;;;;;;20475;6878;116727;-87
2021/12/11 02:48:25;;;;;;;1.30;1.20;;;6.00;55.70;;;;;;20386;6893;288804;-85
2021/12/11 02:51:00;;;;;;;1.10;1.00;;;5.90;55.60;;;;;;20258;6891;320558;-86
2021/12/11 02:53:29;;;;;;;1.00;0.90;;;6.20;55.10;;;;;;20676;6878;116091;-86
2021/12/11 02:55:57;;;;;;;1.00;1.00;;;6.20;55.70;;;;;;20384;6893;311384;-86
2021/12/11 02:58:23;;;;;;;1.80;1.20;;;6.40;54.60;;;;;;20395;6878;309123;-85
2021/12/11 03:00:49;;;;;;;1.20;1.10;;;6.40;54.60;;;;;;20580;6891;116313;-85
2021/12/11 03:03:14;;;;;;;1.60;0.93;;;6.30;54.50;;;;;;20643;6878;116244;-86
2021/12/11 03:05:45;;;;;;;1.10;1.00;;;6.00;55.10;;;;;;20650;6878;123513;-86
2021/12/11 03:08:06;;;;;;;1.50;1.07;;;5.80;55.80;;;;;;20603;6893;118628;-86
2021/12/11 03:10:31;;;;;;;0.90;0.90;;;5.60;56.30;;;;;;20677;6878;117310;-86
2021/12/11 03:12:57;;;;;;;2.00;0.90;;;5.50;56.80;;;;;;20608;6891;117333;-86
2021/12/11 03:15:22;;;;;;;0.90;0.90;;;5.30;57.20;;;;;;20659;6878;118681;-86
2021/12/11 03:17:48;;;;;;;2.27;0.87;;;5.20;57.50;;;;;;20615;6893;117679;-85
2021/12/11 03:20:13;;;;;;;0.80;0.80;;;5.10;57.80;;;;;;20667;6878;118204;-86
2021/12/11 03:22:42;;;;;;;1.20;1.20;;;5.30;58.30;;;;;;20408;6891;311188;-89
2021/12/11 03:25:05;;;;;;;1.00;1.00;;;5.30;58.20;;;;;;20608;6891;116484;-86
2021/12/11 03:27:31;;;;;;;0.90;0.90;;;5.40;57.90;;;;;;20603;6893;117485;-86
2021/12/11 03:29:56;;;;;;;1.37;1.10;;;5.30;58.00;;;;;;20429;6878;308618;-86
2021/12/11 03:32:23;;;;;;;1.00;1.00;;;5.80;57.80;;;;;;20375;6891;327091;-87
2021/12/11 03:34:48;;;;;;;1.40;1.30;;;5.80;57.50;;;;;;20383;6893;279561;-86
2021/12/11 03:37:14;;;;;;;1.12;1.12;;;6.10;56.70;;;;;;20638;6878;117168;-88
2021/12/11 03:39:39;;;;;;;1.40;1.20;;;6.00;56.50;;;;;;20386;6891;308729;-86
2021/12/11 03:42:05;;;;;;;1.00;1.00;;;6.10;56.70;;;;;;20431;6878;280584;-86
2021/12/11 03:44:33;;;;;;;1.30;1.20;;;6.50;55.60;;;;;;20350;6893;309908;-87
2021/12/11 03:46:57;;;;;;;1.15;1.10;;;6.50;55.80;;;;;;20422;6878;338799;-85
2021/12/11 03:49:22;;;;;;;1.48;1.30;;;6.60;55.20;;;;;;20390;6891;308280;-85
2021/12/11 03:51:48;;;;;;;1.33;1.30;;;6.70;54.70;;;;;;20646;6878;117599;-87
2021/12/11 03:54:13;;;;;;;1.15;1.05;;;6.50;54.90;;;;;;20607;6893;122965;-85
2021/12/11 03:56:39;;;;;;;1.23;1.13;;;6.20;55.60;;;;;;20615;6878;117253;-85
2021/12/11 03:59:09;;;;;;;1.15;1.05;;;5.90;56.40;;;;;;20614;6891;117351;-87
2021/12/11 04:01:30;;;;;;;1.10;0.90;;;5.70;57.10;;;;;;20652;6877;116478;-87
2021/12/11 04:03:56;;;;;;;0.93;0.93;;;5.50;57.50;;;;;;20612;6893;117016;-85
2021/12/11 04:06:21;;;;;;;1.10;1.10;;;5.40;57.90;;;;;;20623;6878;117993;-88
2021/12/11 04:08:47;;;;;;;2.12;1.42;;;5.30;58.90;;;;;;20391;6891;282979;-88
2021/12/11 04:11:15;;;;;;;1.20;0.50;;;5.50;58.10;;;;;;20426;6878;338598;-88
2021/12/11 04:13:41;;;;;;;0.40;0.40;;;5.80;56.40;;;;;;20593;6878;117702;-87
2021/12/11 04:16:07;;;;;;;0.60;0.60;;;5.80;55.40;;;;;;20393;6887;309622;-85
2021/12/11 04:18:32;;;;;;;1.70;1.60;;;5.70;54.30;;;;;;20422;6868;295428;-85
2021/12/11 04:20:58;;;;;;;1.80;0.90;;;5.80;53.90;;;;;;20673;6866;118295;-88
2021/12/11 04:23:23;;;;;;;0.85;0.85;;;5.60;53.60;;;;;;20462;6866;310426;-87
2021/12/11 04:25:49;;;;;;;1.30;1.30;;;5.40;54.30;;;;;;20715;6866;122642;-87
2021/12/11 04:28:17;;;;;;;1.10;1.10;;;5.20;54.30;;;;;;20674;6872;116263;-88
2021/12/11 04:30:42;;;;;;;1.20;1.20;;;4.90;55.00;;;;;;20432;6872;306729;-86
2021/12/11 04:33:06;;;;;;;0.90;0.90;;;4.90;55.80;;;;;;20640;6882;123675;-86
2021/12/11 04:35:31;;;;;;;1.12;1.12;;;4.70;55.80;;;;;;20452;6876;333371;-88
2021/12/11 04:37:57;;;;;;;1.33;1.33;;;4.80;56.60;;;;;;20439;6876;308289;-86
2021/12/11 04:40:22;;;;;;;1.20;1.20;;;5.00;56.10;;;;;;20615;6876;117978;-86
2021/12/11 04:45:20;;;;;;;1.40;1.40;;;5.00;56.60;;;;;;20448;6859;284217;-86
2021/12/11 04:48:01;;;;;;;1.50;1.50;;;5.10;56.10;;;;;;20674;6859;117161;-86
2021/12/11 04:50:31;;;;;;;1.10;1.10;;;5.00;56.00;;;;;;20670;6859;117355;-89
2021/12/11 04:52:58;;;;;;;1.23;1.20;;;4.70;56.60;;;;;;20659;6859;117249;-87
2021/12/11 05:01:10;;;;;;;1.10;1.10;;;4.10;58.60;;;;;;20623;6875;117700;-88
2021/12/11 05:03:25;;;;;;;1.15;1.15;;;4.00;59.20;;;;;;20507;6860;117568;-87
2021/12/11 05:05:55;;;;;;;1.60;1.60;;;3.90;59.70;;;;;;20401;6860;312116;-87
2021/12/11 05:10:54;;;;;;;1.70;1.60;;;4.20;59.70;;;;;;20648;6863;119394;-87
2021/12/11 05:13:14;;;;;;;2.10;2.00;;;4.20;59.70;;;;;;20651;6861;117473;-87
2021/12/11 05:15:40;;;;;;;5.03;4.55;;;4.10;60.00;;;;;;20467;6859;307280;-88
2021/12/11 05:18:05;;;;;;;3.72;2.72;;;4.30;60.10;;;;;;20691;6860;119061;-89
2021/12/11 05:20:32;;;;;;;2.05;1.95;;;4.40;60.10;;;;;;20649;6860;117732;-87
2021/12/11 05:22:57;;;;;;;1.77;1.67;;;4.40;59.70;;;;;;20681;6860;119057;-87
2021/12/11 05:25:23;;;;;;;1.10;1.10;;;4.30;59.80;;;;;;20707;6860;122302;-87
2021/12/11 05:27:48;;;;;;;1.50;1.50;;;4.20;59.90;;;;;;20776;6860;119450;-90
2021/12/11 05:30:14;;;;;;;1.30;1.30;;;4.20;60.00;;;;;;20722;6860;116561;-88
2021/12/11 05:32:39;;;;;;;2.30;2.20;;;4.10;60.20;;;;;;20439;6860;332662;-87
2021/12/11 05:35:06;;;;;;;2.17;2.08;;;4.70;59.20;;;;;;20465;6860;335917;-87
2021/12/11 05:37:32;;;;;;;2.00;1.90;;;5.00;58.00;;;;;;20465;6860;308723;-86
2021/12/11 05:39:58;;;;;;;1.87;1.77;;;5.00;58.00;;;;;;20480;6860;337398;-87
2021/12/11 05:42:23;;;;;;;1.80;1.80;;;5.30;57.10;;;;;;20507;6860;306307;-87
2021/12/11 05:44:49;;;;;;;1.80;1.70;;;5.50;56.30;;;;;;20559;6860;117618;-90
2021/12/11 05:47:16;;;;;;;1.75;1.65;;;5.40;56.50;;;;;;20687;6860;117994;-87
2021/12/11 05:49:41;;;;;;;2.00;2.00;;;5.10;57.10;;;;;;20457;6860;336784;-86
2021/12/11 05:52:06;;;;;;;2.30;2.10;;;5.20;57.40;;;;;;20468;6860;308826;-87
2021/12/11 05:54:32;;;;;;;2.08;2.08;;;5.40;56.70;;;;;;20443;6860;337823;-89
2021/12/11 05:56:59;;;;;;;1.87;1.80;;;5.60;56.30;;;;;;20680;6860;117719;-86
2021/12/11 05:59:22;;;;;;;1.62;1.62;;;5.50;56.40;;;;;;20665;6860;117129;-87
2021/12/11 06:01:51;;;;;;;1.80;1.80;;;5.20;57.10;;;;;;20676;6860;117519;-87
2021/12/11 06:04:17;;;;;;;1.67;1.67;;;5.00;57.80;;;;;;20671;6860;118116;-86
2021/12/11 06:06:43;;;;;;;2.40;2.30;;;4.80;58.30;;;;;;20423;6860;297150;-86
2021/12/11 06:09:08;;;;;;;2.50;2.40;;;4.90;58.30;;;;;;20458;6860;308714;-90
2021/12/11 06:11:34;;;;;;;2.47;2.37;;;5.20;57.70;;;;;;20463;6860;308581;-87
2021/12/11 06:13:59;;;;;;;2.23;2.13;;;5.60;56.90;;;;;;20621;6879;117642;-85
2021/12/11 06:16:26;;;;;;;2.67;2.58;;;5.50;56.70;;;;;;20389;6881;309121;-89
2021/12/11 06:18:51;;;;;;;2.50;2.40;;;5.50;56.70;;;;;;20622;6866;117738;-86
2021/12/11 06:21:17;;;;;;;2.60;2.50;;;5.50;56.80;;;;;;20445;6859;308857;-85
2021/12/11 06:23:43;;;;;;;2.10;2.00;;;5.50;56.80;;;;;;20675;6858;117444;-85
2021/12/11 06:26:09;;;;;;;2.00;1.90;;;5.40;56.70;;;;;;20640;6874;118183;-86
2021/12/11 06:28:34;;;;;;;2.60;2.50;;;5.20;57.10;;;;;;20455;6860;308256;-86
2021/12/11 06:31:02;;;;;;;2.30;2.20;;;5.30;57.60;;;;;;20720;6860;117658;-90
2021/12/11 06:33:25;;;;;;;2.60;2.50;;;5.30;57.60;;;;;;20516;6860;337685;-87
2021/12/11 06:35:51;;;;;;;2.50;2.40;;;5.60;57.10;;;;;;20478;6860;278651;-86
2021/12/11 06:38:17;;;;;;;2.60;2.40;;;5.60;57.00;;;;;;20447;6860;341374;-85
2021/12/11 06:40:43;;;;;;;2.10;2.00;;;5.70;55.90;;;;;;20610;6862;117630;-88
2021/12/11 06:43:09;;;;;;;5.10;4.80;;;5.70;55.90;;;;;;20694;6863;116777;-89
2021/12/11 06:45:35;;;;;;;17.27;15.50;;;5.40;56.80;;;;;;20495;6857;311963;-88
2021/12/11 06:48:01;;;;;;;6.10;5.70;;;5.40;56.80;;;;;;20473;6857;307514;-87
2021/12/11 06:50:26;;;;;;;3.50;3.30;;;5.70;56.50;;;;;;20675;6857;117619;-88
2021/12/11 06:52:52;;;;;;;2.60;2.50;;;5.60;57.10;;;;;;20691;6857;117521;-88
2021/12/11 06:55:17;;;;;;;2.13;2.03;;;5.30;57.00;;;;;;20685;6857;117503;-85
2021/12/11 06:57:43;;;;;;;2.95;2.85;;;5.00;57.50;;;;;;20462;6872;310529;-85
2021/12/11 07:00:09;;;;;;;2.90;2.80;;;5.10;57.80;;;;;;20539;6857;312414;-87
2021/12/11 07:02:34;;;;;;;2.53;2.43;;;5.50;57.50;;;;;;20647;6872;117176;-88
2021/12/11 07:05:00;;;;;;;2.50;2.40;;;5.40;57.60;;;;;;20711;6857;117551;-88
2021/12/11 07:07:32;;;;;;;2.67;2.58;;;5.30;57.90;;;;;;20478;6857;278094;-87
2021/12/11 07:09:52;;;;;;;2.83;2.73;;;5.30;57.90;;;;;;20476;6857;285973;-87
2021/12/11 07:12:17;;;;;;;3.43;3.23;;;5.60;57.30;;;;;;20483;6857;282601;-86
2021/12/11 07:14:43;;;;;;;2.90;2.80;;;5.80;56.50;;;;;;20465;6857;307653;-88
2021/12/11 07:17:08;;;;;;;3.00;2.90;;;6.00;55.80;;;;;;20652;6872;117845;-86
2021/12/11 07:19:34;;;;;;;3.33;3.12;;;5.80;55.80;;;;;;20482;6857;311994;-86
2021/12/11 07:21:59;;;;;;;3.00;2.80;;;5.80;56.10;;;;;;20703;6857;118582;-86
2021/12/11 07:24:27;;;;;;;3.50;3.30;;;5.60;56.20;;;;;;20438;6872;291468;-85
2021/12/11 07:26:51;;;;;;;2.90;2.80;;;5.60;56.20;;;;;;20707;6857;118206;-86
2021/12/11 07:29:16;;;;;;;2.43;2.23;;;5.50;56.60;;;;;;20664;6872;117062;-86
2021/12/11 07:31:42;;;;;;;3.40;3.20;;;5.30;57.10;;;;;;20469;6864;294954;-92
2021/12/11 07:34:07;;;;;;;2.70;2.50;;;5.30;57.80;;;;;;20694;6866;117134;-88
2021/12/11 07:36:33;;;;;;;2.20;2.10;;;5.30;57.70;;;;;;20720;6864;123377;-90
2021/12/11 07:38:58;;;;;;;3.23;3.10;;;5.10;58.10;;;;;;20457;6865;308273;-90
2021/12/11 07:41:25;;;;;;;2.30;2.20;;;5.20;58.00;;;;;;20674;6865;120998;-88
2021/12/11 07:43:50;;;;;;;3.40;3.10;;;5.10;57.90;;;;;;20457;6865;283892;-90
2021/12/11 07:46:16;;;;;;;3.10;2.90;;;5.30;58.10;;;;;;20414;6879;312947;-87
2021/12/11 07:48:41;;;;;;;2.72;2.50;;;5.60;57.50;;;;;;20594;6881;129250;-88
2021/12/11 07:51:08;;;;;;;3.33;3.20;;;5.50;57.50;;;;;;20449;6866;308091;-87
2021/12/11 07:53:33;;;;;;;3.20;3.00;;;5.50;57.50;;;;;;20620;6879;119586;-86
2021/12/11 07:55:59;;;;;;;2.30;2.20;;;5.50;57.60;;;;;;20621;6881;117549;-89
2021/12/11 07:58:24;;;;;;;2.90;2.80;;;5.20;58.00;;;;;;20386;6879;308937;-87
2021/12/11 08:00:50;;;;;;;2.80;2.60;;;5.30;58.40;;;;;;20718;6860;116603;-86
2021/12/11 08:03:15;;;;;;;3.20;3.10;;;5.30;58.20;;;;;;20469;6860;301257;-87
2021/12/11 08:05:41;;;;;;;3.33;3.10;;;5.40;58.20;;;;;;20454;6860;338149;-92
2021/12/11 08:08:09;;;;;;;3.60;3.40;;;5.70;57.80;;;;;;20455;6860;341895;-86
2021/12/11 08:10:32;;;;;;;3.50;3.30;;;5.90;57.00;;;;;;20433;6860;311940;-87
2021/12/11 08:12:58;;;;;;;3.70;3.50;;;6.10;56.50;;;;;;20462;6860;307985;-88
2021/12/11 08:15:23;;;;;;;3.67;3.47;;;6.20;56.00;;;;;;20483;6860;306518;-88
2021/12/11 08:17:54;;;;;;;3.40;3.30;;;6.30;55.80;;;;;;20488;6860;278817;-86
2021/12/11 08:20:14;;;;;;;4.07;3.87;;;6.30;55.40;;;;;;20652;6860;117450;-87
2021/12/11 08:22:40;;;;;;;17.03;15.50;;;6.10;55.70;;;;;;20440;6860;338207;-86
2021/12/11 08:25:06;;;;;;;6.05;5.60;;;6.10;56.20;;;;;;20615;6879;117639;-86
2021/12/11 08:27:31;;;;;;;10.03;9.40;;;5.90;56.40;;;;;;20394;6881;312913;-86
2021/12/11 08:29:57;;;;;;;8.07;7.47;;;5.90;56.60;;;;;;20435;6866;312516;-88
2021/12/11 08:32:23;;;;;;;5.18;4.80;;;6.00;56.20;;;;;;20669;6859;116718;-84
2021/12/11 08:34:48;;;;;;;5.25;4.85;;;5.90;56.20;;;;;;20311;6875;338763;-83
2021/12/11 08:37:14;;;;;;;5.20;4.90;;;5.90;56.40;;;;;;20679;6860;121515;-83
2021/12/11 08:39:39;;;;;;;5.00;4.75;;;5.80;56.50;;;;;;20667;6860;117002;-85
2021/12/11 08:42:05;;;;;;;5.20;4.90;;;5.60;57.10;;;;;;20667;6860;117493;-83
2021/12/11 08:44:35;;;;;;;4.07;3.87;;;5.30;57.70;;;;;;20678;6860;117839;-83
2021/12/11 08:46:56;;;;;;;4.37;4.17;;;5.20;59.00;;;;;;20708;6858;116505;-83
2021/12/11 08:49:21;;;;;;;6.30;6.00;;;5.10;58.90;;;;;;20472;6859;341103;-83
2021/12/11 08:51:51;;;;;;;6.32;5.93;;;5.60;58.00;;;;;;20446;6860;311965;-85
2021/12/11 08:54:17;;;;;;;5.30;4.90;;;5.60;57.50;;;;;;20647;6860;119776;-86
2021/12/11 08:56:43;;;;;;;6.18;5.87;;;5.60;57.50;;;;;;20429;6860;313513;-85
2021/12/11 08:59:09;;;;;;;6.27;5.90;;;5.90;56.20;;;;;;20451;6860;342401;-86
2021/12/11 09:01:38;;;;;;;7.23;6.73;;;5.90;55.80;;;;;;20453;6860;295139;-84
2021/12/11 09:04:10;;;;;;;7.00;6.50;;;6.10;55.60;;;;;;20661;6860;117425;-87
2021/12/11 09:06:38;;;;;;;6.37;5.97;;;6.00;55.80;;;;;;20660;6860;119636;-84
2021/12/11 09:09:24;;;;;;;6.82;6.43;;;5.70;56.40;;;;;;20455;6860;308668;-88
2021/12/11 09:11:56;;;;;;;7.17;6.60;;;5.70;56.20;;;;;;20467;6860;307830;-84
2021/12/11 09:14:41;;;;;;;6.40;6.07;;;5.90;55.40;;;;;;20656;6860;121291;-85
2021/12/11 09:17:27;;;;;;;7.60;7.00;;;5.80;55.50;;;;;;20447;6875;279007;-87
2021/12/11 09:19:53;;;;;;;7.87;7.45;;;5.80;55.70;;;;;;20427;6875;278998;-88
2021/12/11 09:22:22;;;;;;;7.60;6.97;;;6.00;55.70;;;;;;20625;6875;117650;-89
2021/12/11 09:24:49;;;;;;;11.50;10.60;;;5.90;55.50;;;;;;20407;6875;309251;-85
2021/12/11 09:27:17;;;;;;;15.57;14.23;;;6.00;56.00;;;;;;20451;6860;284936;-89
2021/12/11 09:29:48;;;;;;;8.73;7.93;;;6.20;56.00;;;;;;20643;6878;117500;-85
2021/12/11 09:32:21;;;;;;;10.33;9.63;;;6.10;56.00;;;;;;20682;6875;117618;-92
2021/12/11 09:34:56;;;;;;;9.93;9.13;;;5.80;56.60;;;;;;20663;6860;117568;-88
2021/12/11 09:37:22;;;;;;;9.70;9.00;;;5.60;57.30;;;;;;20412;6875;297762;-84
2021/12/11 09:39:48;;;;;;;7.50;6.93;;;5.70;57.60;;;;;;20636;6875;117091;-85
2021/12/11 09:42:13;;;;;;;11.98;10.95;;;5.80;57.50;;;;;;20659;6860;117043;-86
2021/12/11 09:44:43;;;;;;;8.77;8.03;;;5.70;57.80;;;;;;20602;6878;117637;-85
2021/12/11 09:47:25;;;;;;;14.02;13.13;;;5.50;58.10;;;;;;20408;6875;285006;-88
2021/12/11 09:49:54;;;;;;;7.07;6.57;;;5.70;58.50;;;;;;20674;6860;118101;-90
2021/12/11 09:52:18;;;;;;;11.50;10.80;;;5.70;58.10;;;;;;20439;6860;308401;-88
2021/12/11 09:54:41;;;;;;;10.55;9.85;;;5.90;57.90;;;;;;20648;6860;117718;-84
2021/12/11 09:57:07;;;;;;;8.53;8.00;;;5.90;57.80;;;;;;20635;6875;117535;-85
2021/12/11 09:59:32;;;;;;;10.73;9.93;;;5.80;58.10;;;;;;20459;6858;337813;-88
2021/12/11 10:02:00;;;;;;;8.33;7.73;;;5.90;58.00;;;;;;20691;6859;117586;-84
2021/12/11 10:04:30;;;;;;;7.33;6.80;;;5.90;57.70;;;;;;20630;6875;117446;-84
2021/12/11 10:07:13;;;;;;;8.23;7.73;;;5.80;58.10;;;;;;20635;6875;120578;-84
2021/12/11 10:09:18;;;;;;;6.37;5.93;;;5.70;58.60;;;;;;20441;6860;307336;-86
2021/12/11 10:11:43;;;;;;;6.20;5.80;;;5.90;58.50;;;;;;20456;6860;337819;-91
2021/12/11 10:14:09;;;;;;;6.30;5.90;;;6.50;56.40;;;;;;20475;6860;340437;-86
2021/12/11 10:16:35;;;;;;;6.18;5.80;;;6.50;56.40;;;;;;20449;6860;341910;-85
2021/12/11 10:19:00;;;;;;;6.77;6.37;;;6.80;55.80;;;;;;20462;6860;279051;-85
2021/12/11 10:21:32;;;;;;;6.80;6.40;;;7.00;55.20;;;;;;20478;6860;307418;-85
2021/12/11 10:23:57;;;;;;;6.90;5.37;;;7.10;54.90;;;;;;20668;6875;116981;-90
2021/12/11 10:26:25;;;;;;;7.68;7.07;;;7.00;55.00;;;;;;20444;6875;295638;-85
2021/12/11 10:28:48;;;;;;;6.40;5.93;;;7.00;55.50;;;;;;20670;6871;116458;-85
2021/12/11 10:31:24;;;;;;;6.10;5.70;;;6.90;55.80;;;;;;20485;6860;280517;-85
2021/12/11 10:33:49;;;;;;;5.73;5.37;;;6.90;55.40;;;;;;20414;6875;305685;-91
2021/12/11 10:36:15;;;;;;;5.55;5.15;;;7.10;55.10;;;;;;20455;6881;309259;-86
2021/12/11 10:38:40;;;;;;;5.40;5.10;;;7.30;54.60;;;;;;20455;6865;281033;-86
2021/12/11 10:41:06;;;;;;;4.35;4.12;;;7.40;54.30;;;;;;20723;6863;117061;-84
2021/12/11 10:43:39;;;;;;;4.70;4.40;;;7.30;54.60;;;;;;20472;6875;309197;-85
2021/12/11 10:46:04;;;;;;;4.90;4.50;;;7.20;54.40;;;;;;20654;6875;117086;-86
2021/12/11 10:48:29;;;;;;;4.77;4.47;;;7.10;54.90;;;;;;20727;6860;118066;-85
2021/12/11 10:50:58;;;;;;;4.60;4.30;;;6.90;55.70;;;;;;20706;6860;117236;-87
2021/12/11 10:53:23;;;;;;;5.23;4.83;;;6.80;56.40;;;;;;20440;6875;280400;-86
2021/12/11 10:55:49;;;;;;;4.22;4.00;;;6.90;56.30;;;;;;20439;6875;317601;-89
2021/12/11 10:58:15;;;;;;;5.10;4.70;;;7.20;55.10;;;;;;20435;6875;280107;-85
2021/12/11 11:00:43;;;;;;;3.97;3.77;;;7.40;54.10;;;;;;20624;6875;117009;-84
2021/12/11 11:03:09;;;;;;;4.23;3.93;;;7.40;54.20;;;;;;20607;6875;117011;-84
2021/12/11 11:05:34;;;;;;;4.30;4.00;;;7.10;54.50;;;;;;20697;6860;116189;-84
2021/12/11 11:08:00;;;;;;;4.07;3.87;;;6.80;55.10;;;;;;20691;6860;117773;-88
2021/12/11 11:10:26;;;;;;;4.90;4.50;;;6.70;56.30;;;;;;20470;6858;336772;-87
2021/12/11 11:12:53;;;;;;;3.70;3.50;;;7.00;54.00;;;;;;20477;6859;337348;-85
2021/12/11 11:15:20;;;;;;;3.50;3.30;;;7.10;54.00;;;;;;20694;6860;116921;-84
2021/12/11 11:17:43;;;;;;;3.90;3.70;;;7.10;54.10;;;;;;20662;6875;118078;-87
2021/12/11 11:20:09;;;;;;;5.10;4.80;;;6.90;54.60;;;;;;20457;6875;308748;-86
2021/12/11 11:22:34;;;;;;;4.83;4.53;;;7.00;54.20;;;;;;20470;6860;340607;-86
2021/12/11 11:25:10;;;;;;;3.90;3.60;;;7.30;53.60;;;;;;20699;6860;117280;-85
2021/12/11 11:27:36;;;;;;;4.30;4.10;;;7.30;53.70;;;;;;20500;6860;299989;-89
2021/12/11 11:30:01;;;;;;;4.20;4.00;;;7.30;53.10;;;;;;20506;6860;342300;-86
2021/12/11 11:32:31;;;;;;;4.20;3.90;;;7.50;51.50;;;;;;20676;6860;117200;-87
2021/12/11 11:34:52;;;;;;;4.40;4.10;;;7.40;51.60;;;;;;20433;6875;309481;-90
2021/12/11 11:37:18;;;;;;;4.00;3.70;;;7.40;51.00;;;;;;20708;6860;117557;-85
2021/12/11 11:39:43;;;;;;;3.70;3.50;;;7.20;51.30;;;;;;20699;6860;116054;-84
2021/12/11 11:42:09;;;;;;;4.20;3.90;;;7.00;52.20;;;;;;20705;6860;121890;-87
2021/12/11 11:44:34;;;;;;;4.55;4.35;;;6.80;53.00;;;;;;20431;6860;324253;-85
2021/12/11 11:47:00;;;;;;;4.10;3.90;;;6.90;53.00;;;;;;20709;6860;117429;-85
2021/12/11 11:49:25;;;;;;;4.57;4.30;;;6.90;53.20;;;;;;20492;6860;279604;-87
2021/12/11 11:51:55;;;;;;;4.50;4.20;;;7.00;52.50;;;;;;20473;6875;309247;-87
2021/12/11 11:54:20;;;;;;;3.87;3.67;;;7.30;52.50;;;;;;20670;6875;116180;-88
2021/12/11 11:56:46;;;;;;;3.90;3.50;;;7.30;52.60;;;;;;20700;6860;116931;-88
2021/12/11 11:59:11;;;;;;;3.53;3.33;;;7.10;53.20;;;;;;20684;6860;119221;-88
2021/12/11 12:01:38;;;;;;;3.97;3.77;;;6.90;53.70;;;;;;20701;6860;119743;-85
2021/12/11 12:04:03;;;;;;;4.47;4.18;;;6.80;53.00;;;;;;20485;6860;279033;-84
2021/12/11 12:06:32;;;;;;;3.90;3.70;;;6.80;52.30;;;;;;20455;6875;308457;-88
2021/12/11 12:08:54;;;;;;;3.97;3.78;;;7.10;50.90;;;;;;20478;6860;308619;-88
2021/12/11 12:11:20;;;;;;;3.90;3.70;;;7.40;50.50;;;;;;20722;6860;116622;-84
2021/12/11 12:13:45;;;;;;;4.00;3.80;;;7.30;50.80;;;;;;20732;6860;119782;-91
2021/12/11 12:16:11;;;;;;;3.55;3.35;;;7.00;51.40;;;;;;20735;6860;116056;-87
2021/12/11 12:18:38;;;;;;;3.73;3.53;;;6.80;52.10;;;;;;20674;6860;117600;-89
2021/12/11 12:21:03;;;;;;;3.72;3.50;;;6.60;52.50;;;;;;20637;6875;124003;-85
2021/12/11 12:23:31;;;;;;;3.93;3.63;;;6.50;53.10;;;;;;20646;6873;118097;-85
2021/12/11 12:25:56;;;;;;;3.87;3.67;;;6.40;53.70;;;;;;20642;6880;119695;-84
2021/12/11 12:28:21;;;;;;;4.60;4.40;;;6.30;54.00;;;;;;20477;6865;307522;-86
2021/12/11 12:30:50;;;;;;;4.17;3.97;;;6.50;53.30;;;;;;20671;6862;117928;-87
2021/12/11 12:33:16;;;;;;;4.27;4.07;;;6.60;53.40;;;;;;20639;6875;117148;-85
2021/12/11 12:35:41;;;;;;;4.53;4.23;;;6.60;53.80;;;;;;20681;6860;117426;-86
2021/12/11 12:38:07;;;;;;;4.80;4.50;;;6.60;54.10;;;;;;20472;6860;316075;-85
2021/12/11 12:40:32;;;;;;;4.37;4.17;;;6.70;53.40;;;;;;20678;6860;117061;-85
2021/12/11 12:43:05;;;;;;;4.40;4.17;;;6.90;53.50;;;;;;20478;6860;278564;-88
2021/12/11 12:45:26;;;;;;;4.75;4.45;;;7.10;52.90;;;;;;20459;6860;278286;-84
2021/12/11 12:47:56;;;;;;;4.60;4.40;;;7.30;50.90;;;;;;20430;6875;309596;-89
2021/12/11 12:50:21;;;;;;;5.13;4.90;;;7.60;50.10;;;;;;20473;6860;279074;-85
2021/12/11 12:52:46;;;;;;;5.70;5.40;;;7.80;49.60;;;;;;20430;6860;307817;-90